sensor_id;sensor_type;location;lat;lon;timestamp;P1;durP1;ratioP1;P2;durP2;ratioP2
11255;SDS011;5685;52.384;13.420;2023-05-10T00:00:59;77.23;;;41.20;;
11255;SDS011;5685;52.384;13.420;2023-05-10T00:04:01;76.80;;;40.90;;
11255;SDS011;5685;52.384;13.420;2023-05-10T00:07:03;77.43;;;41.23;;
11255;SDS011;5685;52.384;13.420;2023-05-10T00:10:08;76.83;;;40.83;;
11255;SDS011;5685;52.384;13.420;2023-05-10T00:13:10;77.60;;;41.30;;
11255;SDS011;5685;52.384;13.420;2023-05-10T00:16:12;77.60;;;41.30;;
11255;SDS011;5685;52.384;13.420;2023-05-10T00:19:15;77.40;;;41.10;;
11255;SDS011;5685;52.384;13.420;2023-05-10T00:22:17;77.17;;;41.07;;
11255;SDS011;5685;52.384;13.420;2023-05-10T00:25:21;77.67;;;41.27;;
11255;SDS011;5685;52.384;13.420;2023-05-10T00:28:23;77.57;;;41.10;;
11255;SDS011;5685;52.384;13.420;2023-05-10T00:31:25;76.77;;;40.87;;
11255;SDS011;5685;52.384;13.420;2023-05-10T00:34:28;77.17;;;41.03;;
11255;SDS011;5685;52.384;13.420;2023-05-10T00:37:30;77.63;;;41.23;;
11255;SDS011;5685;52.384;13.420;2023-05-10T00:40:35;77.33;;;41.10;;
11255;SDS011;5685;52.384;13.420;2023-05-10T00:43:37;77.57;;;41.10;;
11255;SDS011;5685;52.384;13.420;2023-05-10T00:46:40;77.50;;;41.13;;
11255;SDS011;5685;52.384;13.420;2023-05-10T00:49:42;76.57;;;40.77;;
11255;SDS011;5685;52.384;13.420;2023-05-10T00:52:45;77.07;;;41.00;;
11255;SDS011;5685;52.384;13.420;2023-05-10T00:55:49;76.90;;;40.80;;
11255;SDS011;5685;52.384;13.420;2023-05-10T00:58:51;77.10;;;41.03;;
11255;SDS011;5685;52.384;13.420;2023-05-10T01:01:53;76.50;;;40.70;;
11255;SDS011;5685;52.384;13.420;2023-05-10T01:04:56;77.10;;;40.87;;
11255;SDS011;5685;52.384;13.420;2023-05-10T01:07:58;77.07;;;40.97;;
11255;SDS011;5685;52.384;13.420;2023-05-10T01:11:02;77.20;;;41.00;;
11255;SDS011;5685;52.384;13.420;2023-05-10T01:14:04;77.03;;;40.93;;
11255;SDS011;5685;52.384;13.420;2023-05-10T01:17:06;77.40;;;41.03;;
11255;SDS011;5685;52.384;13.420;2023-05-10T01:20:10;76.73;;;40.77;;
11255;SDS011;5685;52.384;13.420;2023-05-10T01:26:39;77.33;;;41.00;;
11255;SDS011;5685;52.384;13.420;2023-05-10T01:29:53;77.80;;;41.27;;
11255;SDS011;5685;52.384;13.420;2023-05-10T01:33:04;77.40;;;41.03;;
11255;SDS011;5685;52.384;13.420;2023-05-10T01:36:13;77.07;;;40.87;;
11255;SDS011;5685;52.384;13.420;2023-05-10T01:39:28;77.53;;;41.03;;
11255;SDS011;5685;52.384;13.420;2023-05-10T01:42:36;77.63;;;41.07;;
11255;SDS011;5685;52.384;13.420;2023-05-10T01:45:41;77.57;;;41.10;;
11255;SDS011;5685;52.384;13.420;2023-05-10T01:48:48;77.57;;;41.10;;
11255;SDS011;5685;52.384;13.420;2023-05-10T01:51:53;77.53;;;41.07;;
11255;SDS011;5685;52.384;13.420;2023-05-10T01:54:57;77.57;;;40.93;;
11255;SDS011;5685;52.384;13.420;2023-05-10T01:58:03;77.13;;;40.87;;
11255;SDS011;5685;52.384;13.420;2023-05-10T02:01:07;76.87;;;40.70;;
11255;SDS011;5685;52.384;13.420;2023-05-10T02:04:11;77.27;;;40.80;;
11255;SDS011;5685;52.384;13.420;2023-05-10T02:07:16;76.97;;;40.70;;
11255;SDS011;5685;52.384;13.420;2023-05-10T02:10:20;77.10;;;40.77;;
11255;SDS011;5685;52.384;13.420;2023-05-10T02:13:23;77.53;;;40.97;;
11255;SDS011;5685;52.384;13.420;2023-05-10T02:16:26;77.77;;;41.00;;
11255;SDS011;5685;52.384;13.420;2023-05-10T02:19:32;77.03;;;40.73;;
11255;SDS011;5685;52.384;13.420;2023-05-10T02:22:34;77.07;;;40.77;;
11255;SDS011;5685;52.384;13.420;2023-05-10T02:25:37;76.83;;;40.70;;
11255;SDS011;5685;52.384;13.420;2023-05-10T02:28:40;76.83;;;40.50;;
11255;SDS011;5685;52.384;13.420;2023-05-10T02:31:43;77.43;;;40.83;;
11255;SDS011;5685;52.384;13.420;2023-05-10T02:34:47;77.40;;;40.80;;
11255;SDS011;5685;52.384;13.420;2023-05-10T02:37:51;77.40;;;40.80;;
11255;SDS011;5685;52.384;13.420;2023-05-10T02:40:55;77.27;;;40.77;;
11255;SDS011;5685;52.384;13.420;2023-05-10T02:43:59;77.40;;;40.80;;
11255;SDS011;5685;52.384;13.420;2023-05-10T02:47:03;77.53;;;40.87;;
11255;SDS011;5685;52.384;13.420;2023-05-10T02:50:08;77.13;;;40.63;;
11255;SDS011;5685;52.384;13.420;2023-05-10T02:53:11;77.07;;;40.57;;
11255;SDS011;5685;52.384;13.420;2023-05-10T02:56:20;77.03;;;40.57;;
11255;SDS011;5685;52.384;13.420;2023-05-10T02:59:22;76.90;;;40.50;;
11255;SDS011;5685;52.384;13.420;2023-05-10T03:02:25;77.70;;;40.87;;
11255;SDS011;5685;52.384;13.420;2023-05-10T03:05:29;77.40;;;40.73;;
11255;SDS011;5685;52.384;13.420;2023-05-10T03:08:32;77.60;;;40.90;;
11255;SDS011;5685;52.384;13.420;2023-05-10T03:11:37;77.23;;;40.67;;
11255;SDS011;5685;52.384;13.420;2023-05-10T03:14:49;77.53;;;40.80;;
11255;SDS011;5685;52.384;13.420;2023-05-10T03:17:55;77.30;;;40.63;;
11255;SDS011;5685;52.384;13.420;2023-05-10T03:21:01;77.03;;;40.63;;
11255;SDS011;5685;52.384;13.420;2023-05-10T03:24:05;77.07;;;40.60;;
11255;SDS011;5685;52.384;13.420;2023-05-10T03:27:09;76.97;;;40.53;;
11255;SDS011;5685;52.384;13.420;2023-05-10T03:30:12;77.23;;;40.67;;
11255;SDS011;5685;52.384;13.420;2023-05-10T03:33:14;77.57;;;40.70;;
11255;SDS011;5685;52.384;13.420;2023-05-10T03:36:18;77.40;;;40.83;;
11255;SDS011;5685;52.384;13.420;2023-05-10T03:39:21;77.10;;;40.57;;
11255;SDS011;5685;52.384;13.420;2023-05-10T03:42:23;77.40;;;40.80;;
11255;SDS011;5685;52.384;13.420;2023-05-10T03:45:25;76.83;;;40.60;;
11255;SDS011;5685;52.384;13.420;2023-05-10T03:48:28;76.60;;;40.47;;
11255;SDS011;5685;52.384;13.420;2023-05-10T03:51:32;76.87;;;40.60;;
11255;SDS011;5685;52.384;13.420;2023-05-10T03:54:34;77.00;;;40.63;;
11255;SDS011;5685;52.384;13.420;2023-05-10T03:57:36;76.83;;;40.63;;
11255;SDS011;5685;52.384;13.420;2023-05-10T04:00:39;77.10;;;40.67;;
11255;SDS011;5685;52.384;13.420;2023-05-10T04:03:45;76.97;;;40.47;;
11255;SDS011;5685;52.384;13.420;2023-05-10T04:06:49;76.93;;;40.60;;
11255;SDS011;5685;52.384;13.420;2023-05-10T04:09:51;77.23;;;40.67;;
11255;SDS011;5685;52.384;13.420;2023-05-10T04:12:53;77.70;;;40.80;;
11255;SDS011;5685;52.384;13.420;2023-05-10T04:15:56;77.37;;;40.80;;
11255;SDS011;5685;52.384;13.420;2023-05-10T04:18:58;77.27;;;40.67;;
11255;SDS011;5685;52.384;13.420;2023-05-10T04:22:03;77.33;;;40.80;;
11255;SDS011;5685;52.384;13.420;2023-05-10T04:25:05;77.10;;;40.70;;
11255;SDS011;5685;52.384;13.420;2023-05-10T04:28:09;76.90;;;40.60;;
11255;SDS011;5685;52.384;13.420;2023-05-10T04:31:12;77.30;;;40.83;;
11255;SDS011;5685;52.384;13.420;2023-05-10T04:34:14;77.40;;;40.80;;
11255;SDS011;5685;52.384;13.420;2023-05-10T04:37:18;77.20;;;40.77;;
11255;SDS011;5685;52.384;13.420;2023-05-10T04:40:21;77.10;;;40.60;;
11255;SDS011;5685;52.384;13.420;2023-05-10T04:43:23;76.93;;;40.50;;
11255;SDS011;5685;52.384;13.420;2023-05-10T04:46:26;77.27;;;40.70;;
11255;SDS011;5685;52.384;13.420;2023-05-10T04:49:28;77.27;;;40.70;;
11255;SDS011;5685;52.384;13.420;2023-05-10T04:52:32;76.87;;;40.50;;
11255;SDS011;5685;52.384;13.420;2023-05-10T04:55:34;76.43;;;40.37;;
11255;SDS011;5685;52.384;13.420;2023-05-10T04:58:37;76.57;;;40.40;;
11255;SDS011;5685;52.384;13.420;2023-05-10T05:01:39;76.63;;;40.50;;
11255;SDS011;5685;52.384;13.420;2023-05-10T05:04:42;76.50;;;40.40;;
11255;SDS011;5685;52.384;13.420;2023-05-10T05:07:45;76.90;;;40.67;;
11255;SDS011;5685;52.384;13.420;2023-05-10T05:10:48;77.13;;;40.70;;
11255;SDS011;5685;52.384;13.420;2023-05-10T05:13:50;77.47;;;40.73;;
11255;SDS011;5685;52.384;13.420;2023-05-10T05:16:53;76.77;;;40.40;;
11255;SDS011;5685;52.384;13.420;2023-05-10T05:19:55;77.17;;;40.50;;
11255;SDS011;5685;52.384;13.420;2023-05-10T05:22:59;77.77;;;40.90;;
11255;SDS011;5685;52.384;13.420;2023-05-10T05:26:02;77.00;;;40.50;;
11255;SDS011;5685;52.384;13.420;2023-05-10T05:29:04;77.17;;;40.53;;
11255;SDS011;5685;52.384;13.420;2023-05-10T05:32:06;76.97;;;40.37;;
11255;SDS011;5685;52.384;13.420;2023-05-10T05:35:09;76.93;;;40.40;;
11255;SDS011;5685;52.384;13.420;2023-05-10T05:38:12;77.83;;;40.83;;
11255;SDS011;5685;52.384;13.420;2023-05-10T05:41:15;77.20;;;40.43;;
11255;SDS011;5685;52.384;13.420;2023-05-10T05:44:17;77.30;;;40.47;;
11255;SDS011;5685;52.384;13.420;2023-05-10T05:47:19;77.30;;;40.40;;
11255;SDS011;5685;52.384;13.420;2023-05-10T05:50:22;77.93;;;40.77;;
11255;SDS011;5685;52.384;13.420;2023-05-10T05:53:25;77.10;;;40.33;;
11255;SDS011;5685;52.384;13.420;2023-05-10T05:56:28;77.10;;;40.40;;
11255;SDS011;5685;52.384;13.420;2023-05-10T05:59:30;77.40;;;40.40;;
11255;SDS011;5685;52.384;13.420;2023-05-10T06:02:33;76.83;;;40.07;;
11255;SDS011;5685;52.384;13.420;2023-05-10T06:05:35;77.77;;;40.57;;
11255;SDS011;5685;52.384;13.420;2023-05-10T06:08:39;76.50;;;39.97;;
11255;SDS011;5685;52.384;13.420;2023-05-10T06:11:41;76.83;;;40.10;;
11255;SDS011;5685;52.384;13.420;2023-05-10T06:14:43;76.90;;;40.17;;
11255;SDS011;5685;52.384;13.420;2023-05-10T06:17:46;77.30;;;40.30;;
11255;SDS011;5685;52.384;13.420;2023-05-10T06:20:49;77.27;;;40.20;;
11255;SDS011;5685;52.384;13.420;2023-05-10T06:23:53;76.87;;;40.07;;
11255;SDS011;5685;52.384;13.420;2023-05-10T06:26:55;76.97;;;40.10;;
11255;SDS011;5685;52.384;13.420;2023-05-10T06:30:00;76.97;;;40.13;;
11255;SDS011;5685;52.384;13.420;2023-05-10T06:33:02;78.03;;;40.50;;
11255;SDS011;5685;52.384;13.420;2023-05-10T06:36:05;77.50;;;40.40;;
11255;SDS011;5685;52.384;13.420;2023-05-10T06:39:09;77.37;;;40.33;;
11255;SDS011;5685;52.384;13.420;2023-05-10T06:42:12;77.40;;;40.33;;
11255;SDS011;5685;52.384;13.420;2023-05-10T06:45:14;77.47;;;40.40;;
11255;SDS011;5685;52.384;13.420;2023-05-10T06:48:17;77.53;;;40.47;;
11255;SDS011;5685;52.384;13.420;2023-05-10T06:51:19;77.03;;;40.23;;
11255;SDS011;5685;52.384;13.420;2023-05-10T06:54:23;77.90;;;40.60;;
11255;SDS011;5685;52.384;13.420;2023-05-10T06:57:26;78.10;;;40.60;;
11255;SDS011;5685;52.384;13.420;2023-05-10T07:00:28;77.27;;;40.20;;
11255;SDS011;5685;52.384;13.420;2023-05-10T07:03:30;77.40;;;40.90;;
11255;SDS011;5685;52.384;13.420;2023-05-10T07:06:33;78.10;;;40.70;;
11255;SDS011;5685;52.384;13.420;2023-05-10T07:09:37;77.80;;;40.40;;
11255;SDS011;5685;52.384;13.420;2023-05-10T07:12:40;77.20;;;40.27;;
11255;SDS011;5685;52.384;13.420;2023-05-10T07:15:42;76.73;;;40.00;;
11255;SDS011;5685;52.384;13.420;2023-05-10T07:18:44;77.43;;;40.33;;
11255;SDS011;5685;52.384;13.420;2023-05-10T07:21:46;77.10;;;40.17;;
11255;SDS011;5685;52.384;13.420;2023-05-10T07:24:50;77.13;;;40.07;;
11255;SDS011;5685;52.384;13.420;2023-05-10T07:27:52;77.40;;;40.23;;
11255;SDS011;5685;52.384;13.420;2023-05-10T07:30:55;77.37;;;40.30;;
11255;SDS011;5685;52.384;13.420;2023-05-10T07:33:57;77.17;;;40.13;;
11255;SDS011;5685;52.384;13.420;2023-05-10T07:37:00;77.27;;;40.30;;
11255;SDS011;5685;52.384;13.420;2023-05-10T07:40:05;77.13;;;40.10;;
11255;SDS011;5685;52.384;13.420;2023-05-10T07:43:07;77.80;;;40.40;;
11255;SDS011;5685;52.384;13.420;2023-05-10T07:46:10;76.57;;;39.90;;
11255;SDS011;5685;52.384;13.420;2023-05-10T07:49:12;77.10;;;40.10;;
11255;SDS011;5685;52.384;13.420;2023-05-10T07:52:14;77.37;;;40.33;;
11255;SDS011;5685;52.384;13.420;2023-05-10T07:55:19;77.87;;;40.53;;
11255;SDS011;5685;52.384;13.420;2023-05-10T07:58:22;77.10;;;40.10;;
11255;SDS011;5685;52.384;13.420;2023-05-10T08:01:24;77.50;;;40.20;;
11255;SDS011;5685;52.384;13.420;2023-05-10T08:04:27;77.30;;;40.20;;
11255;SDS011;5685;52.384;13.420;2023-05-10T08:07:29;77.27;;;40.30;;
11255;SDS011;5685;52.384;13.420;2023-05-10T08:10:33;77.93;;;40.40;;
11255;SDS011;5685;52.384;13.420;2023-05-10T08:13:35;77.33;;;40.20;;
11255;SDS011;5685;52.384;13.420;2023-05-10T08:16:37;77.37;;;40.03;;
11255;SDS011;5685;52.384;13.420;2023-05-10T08:19:40;77.40;;;40.03;;
11255;SDS011;5685;52.384;13.420;2023-05-10T08:22:42;77.43;;;40.20;;
11255;SDS011;5685;52.384;13.420;2023-05-10T08:25:46;77.63;;;40.20;;
11255;SDS011;5685;52.384;13.420;2023-05-10T08:28:48;77.37;;;40.03;;
11255;SDS011;5685;52.384;13.420;2023-05-10T08:31:50;78.07;;;40.40;;
11255;SDS011;5685;52.384;13.420;2023-05-10T08:34:52;77.47;;;40.07;;
11255;SDS011;5685;52.384;13.420;2023-05-10T08:37:56;77.30;;;40.10;;
11255;SDS011;5685;52.384;13.420;2023-05-10T08:40:59;76.90;;;39.80;;
11255;SDS011;5685;52.384;13.420;2023-05-10T08:44:04;77.47;;;40.10;;
11255;SDS011;5685;52.384;13.420;2023-05-10T08:47:06;78.03;;;40.37;;
11255;SDS011;5685;52.384;13.420;2023-05-10T08:50:09;77.67;;;40.23;;
11255;SDS011;5685;52.384;13.420;2023-05-10T08:53:12;77.27;;;40.07;;
11255;SDS011;5685;52.384;13.420;2023-05-10T08:56:16;77.67;;;40.33;;
11255;SDS011;5685;52.384;13.420;2023-05-10T08:59:20;77.23;;;40.00;;
11255;SDS011;5685;52.384;13.420;2023-05-10T09:02:22;77.77;;;40.30;;
11255;SDS011;5685;52.384;13.420;2023-05-10T09:05:25;77.97;;;40.37;;
11255;SDS011;5685;52.384;13.420;2023-05-10T09:08:27;78.03;;;40.43;;
11255;SDS011;5685;52.384;13.420;2023-05-10T09:11:32;78.03;;;40.43;;
11255;SDS011;5685;52.384;13.420;2023-05-10T09:14:35;77.80;;;40.30;;
11255;SDS011;5685;52.384;13.420;2023-05-10T09:17:37;77.50;;;40.17;;
11255;SDS011;5685;52.384;13.420;2023-05-10T09:20:40;78.30;;;40.40;;
11255;SDS011;5685;52.384;13.420;2023-05-10T09:23:43;77.30;;;40.10;;
11255;SDS011;5685;52.384;13.420;2023-05-10T09:26:48;77.37;;;40.03;;
11255;SDS011;5685;52.384;13.420;2023-05-10T09:29:50;76.70;;;39.77;;
11255;SDS011;5685;52.384;13.420;2023-05-10T09:32:55;77.70;;;40.20;;
11255;SDS011;5685;52.384;13.420;2023-05-10T09:36:05;77.87;;;40.27;;
11255;SDS011;5685;52.384;13.420;2023-05-10T09:39:08;77.37;;;40.00;;
11255;SDS011;5685;52.384;13.420;2023-05-10T09:42:12;77.13;;;39.97;;
11255;SDS011;5685;52.384;13.420;2023-05-10T09:45:14;77.80;;;40.20;;
11255;SDS011;5685;52.384;13.420;2023-05-10T09:48:16;77.77;;;40.23;;
11255;SDS011;5685;52.384;13.420;2023-05-10T09:51:19;77.80;;;40.20;;
11255;SDS011;5685;52.384;13.420;2023-05-10T09:54:21;77.67;;;40.30;;
11255;SDS011;5685;52.384;13.420;2023-05-10T09:57:26;77.50;;;40.20;;
11255;SDS011;5685;52.384;13.420;2023-05-10T10:00:28;77.67;;;40.23;;
11255;SDS011;5685;52.384;13.420;2023-05-10T10:03:40;76.90;;;39.67;;
11255;SDS011;5685;52.384;13.420;2023-05-10T10:06:43;77.13;;;40.10;;
11255;SDS011;5685;52.384;13.420;2023-05-10T10:09:45;77.27;;;40.03;;
11255;SDS011;5685;52.384;13.420;2023-05-10T10:12:49;77.37;;;40.03;;
11255;SDS011;5685;52.384;13.420;2023-05-10T10:15:51;76.80;;;39.77;;
11255;SDS011;5685;52.384;13.420;2023-05-10T10:18:54;77.33;;;40.10;;
11255;SDS011;5685;52.384;13.420;2023-05-10T10:21:57;77.70;;;40.23;;
11255;SDS011;5685;52.384;13.420;2023-05-10T10:24:59;77.33;;;40.10;;
11255;SDS011;5685;52.384;13.420;2023-05-10T10:28:10;77.37;;;40.07;;
11255;SDS011;5685;52.384;13.420;2023-05-10T10:31:17;77.73;;;40.23;;
11255;SDS011;5685;52.384;13.420;2023-05-10T10:34:22;77.53;;;40.20;;
11255;SDS011;5685;52.384;13.420;2023-05-10T10:37:40;77.73;;;40.13;;
11255;SDS011;5685;52.384;13.420;2023-05-10T10:40:45;77.80;;;40.23;;
11255;SDS011;5685;52.384;13.420;2023-05-10T10:43:48;78.20;;;40.43;;
11255;SDS011;5685;52.384;13.420;2023-05-10T10:47:01;77.40;;;40.00;;
11255;SDS011;5685;52.384;13.420;2023-05-10T10:50:06;78.00;;;40.40;;
11255;SDS011;5685;52.384;13.420;2023-05-10T10:53:10;77.70;;;40.30;;
11255;SDS011;5685;52.384;13.420;2023-05-10T10:56:12;77.80;;;40.23;;
11255;SDS011;5685;52.384;13.420;2023-05-10T10:59:24;77.33;;;40.10;;
11255;SDS011;5685;52.384;13.420;2023-05-10T11:02:34;77.33;;;40.07;;
11255;SDS011;5685;52.384;13.420;2023-05-10T11:05:45;77.23;;;40.13;;
11255;SDS011;5685;52.384;13.420;2023-05-10T11:08:48;78.17;;;40.50;;
11255;SDS011;5685;52.384;13.420;2023-05-10T11:11:52;77.43;;;40.17;;
11255;SDS011;5685;52.384;13.420;2023-05-10T11:14:58;77.47;;;40.27;;
11255;SDS011;5685;52.384;13.420;2023-05-10T11:18:15;77.50;;;40.17;;
11255;SDS011;5685;52.384;13.420;2023-05-10T11:21:18;77.27;;;40.10;;
11255;SDS011;5685;52.384;13.420;2023-05-10T11:24:21;78.10;;;40.50;;
11255;SDS011;5685;52.384;13.420;2023-05-10T11:27:24;76.97;;;39.97;;
11255;SDS011;5685;52.384;13.420;2023-05-10T11:30:28;77.47;;;40.27;;
11255;SDS011;5685;52.384;13.420;2023-05-10T11:33:30;77.57;;;40.20;;
11255;SDS011;5685;52.384;13.420;2023-05-10T11:36:33;78.10;;;40.53;;
11255;SDS011;5685;52.384;13.420;2023-05-10T11:39:35;77.07;;;40.13;;
11255;SDS011;5685;52.384;13.420;2023-05-10T11:42:38;78.30;;;40.53;;
11255;SDS011;5685;52.384;13.420;2023-05-10T11:45:41;77.67;;;40.37;;
11255;SDS011;5685;52.384;13.420;2023-05-10T11:48:44;77.87;;;40.43;;
11255;SDS011;5685;52.384;13.420;2023-05-10T11:51:46;77.93;;;40.40;;
11255;SDS011;5685;52.384;13.420;2023-05-10T11:54:50;77.93;;;40.50;;
11255;SDS011;5685;52.384;13.420;2023-05-10T11:57:53;78.03;;;40.53;;
11255;SDS011;5685;52.384;13.420;2023-05-10T12:00:57;77.90;;;40.50;;
11255;SDS011;5685;52.384;13.420;2023-05-10T12:04:00;77.43;;;40.27;;
11255;SDS011;5685;52.384;13.420;2023-05-10T12:07:02;77.67;;;40.43;;
11255;SDS011;5685;52.384;13.420;2023-05-10T12:10:06;77.57;;;40.40;;
11255;SDS011;5685;52.384;13.420;2023-05-10T12:13:11;77.60;;;40.33;;
11255;SDS011;5685;52.384;13.420;2023-05-10T12:16:17;77.73;;;40.37;;
11255;SDS011;5685;52.384;13.420;2023-05-10T12:19:19;77.63;;;40.40;;
11255;SDS011;5685;52.384;13.420;2023-05-10T12:22:22;78.17;;;40.60;;
11255;SDS011;5685;52.384;13.420;2023-05-10T12:25:29;77.43;;;40.30;;
11255;SDS011;5685;52.384;13.420;2023-05-10T12:28:31;78.40;;;40.80;;
11255;SDS011;5685;52.384;13.420;2023-05-10T12:31:46;78.07;;;40.60;;
11255;SDS011;5685;52.384;13.420;2023-05-10T12:34:51;78.03;;;40.60;;
11255;SDS011;5685;52.384;13.420;2023-05-10T12:37:54;78.30;;;40.70;;
11255;SDS011;5685;52.384;13.420;2023-05-10T12:40:57;78.03;;;40.60;;
11255;SDS011;5685;52.384;13.420;2023-05-10T12:43:59;78.17;;;40.60;;
11255;SDS011;5685;52.384;13.420;2023-05-10T12:47:03;78.30;;;40.80;;
11255;SDS011;5685;52.384;13.420;2023-05-10T12:50:06;77.87;;;40.60;;
11255;SDS011;5685;52.384;13.420;2023-05-10T12:53:09;78.43;;;40.90;;
11255;SDS011;5685;52.384;13.420;2023-05-10T12:56:11;78.47;;;40.93;;
11255;SDS011;5685;52.384;13.420;2023-05-10T12:59:13;78.20;;;40.63;;
11255;SDS011;5685;52.384;13.420;2023-05-10T13:02:17;78.83;;;41.00;;
11255;SDS011;5685;52.384;13.420;2023-05-10T13:05:20;78.60;;;40.97;;
11255;SDS011;5685;52.384;13.420;2023-05-10T13:08:22;78.37;;;40.87;;
11255;SDS011;5685;52.384;13.420;2023-05-10T13:11:25;78.93;;;41.03;;
11255;SDS011;5685;52.384;13.420;2023-05-10T13:14:27;78.03;;;40.80;;
11255;SDS011;5685;52.384;13.420;2023-05-10T13:17:31;78.27;;;40.80;;
11255;SDS011;5685;52.384;13.420;2023-05-10T13:20:33;78.33;;;40.87;;
11255;SDS011;5685;52.384;13.420;2023-05-10T13:23:35;78.07;;;40.80;;
11255;SDS011;5685;52.384;13.420;2023-05-10T13:26:38;78.70;;;41.10;;
11255;SDS011;5685;52.384;13.420;2023-05-10T13:29:40;78.80;;;41.17;;
11255;SDS011;5685;52.384;13.420;2023-05-10T13:32:44;78.47;;;40.97;;
11255;SDS011;5685;52.384;13.420;2023-05-10T13:35:46;78.33;;;40.87;;
11255;SDS011;5685;52.384;13.420;2023-05-10T13:38:48;78.27;;;40.97;;
11255;SDS011;5685;52.384;13.420;2023-05-10T13:41:50;77.97;;;40.80;;
11255;SDS011;5685;52.384;13.420;2023-05-10T13:44:53;78.73;;;41.10;;
11255;SDS011;5685;52.384;13.420;2023-05-10T13:47:57;78.67;;;41.20;;
11255;SDS011;5685;52.384;13.420;2023-05-10T13:50:59;78.30;;;41.00;;
11255;SDS011;5685;52.384;13.420;2023-05-10T13:54:01;78.40;;;41.10;;
11255;SDS011;5685;52.384;13.420;2023-05-10T13:57:04;78.37;;;41.03;;
11255;SDS011;5685;52.384;13.420;2023-05-10T14:00:07;78.43;;;41.10;;
11255;SDS011;5685;52.384;13.420;2023-05-10T14:03:11;78.03;;;40.90;;
11255;SDS011;5685;52.384;13.420;2023-05-10T14:06:13;78.73;;;41.23;;
11255;SDS011;5685;52.384;13.420;2023-05-10T14:09:15;78.53;;;41.13;;
11255;SDS011;5685;52.384;13.420;2023-05-10T14:12:18;78.73;;;41.20;;
11255;SDS011;5685;52.384;13.420;2023-05-10T14:15:20;78.90;;;41.27;;
11255;SDS011;5685;52.384;13.420;2023-05-10T14:18:24;78.30;;;41.07;;
11255;SDS011;5685;52.384;13.420;2023-05-10T14:21:27;78.90;;;41.37;;
11255;SDS011;5685;52.384;13.420;2023-05-10T14:24:30;78.30;;;41.10;;
11255;SDS011;5685;52.384;13.420;2023-05-10T14:27:33;78.33;;;41.07;;
11255;SDS011;5685;52.384;13.420;2023-05-10T14:30:35;78.63;;;41.13;;
11255;SDS011;5685;52.384;13.420;2023-05-10T14:33:39;78.97;;;41.43;;
11255;SDS011;5685;52.384;13.420;2023-05-10T14:36:41;79.40;;;41.67;;
11255;SDS011;5685;52.384;13.420;2023-05-10T14:39:43;78.87;;;41.43;;
11255;SDS011;5685;52.384;13.420;2023-05-10T14:42:45;79.13;;;41.50;;
11255;SDS011;5685;52.384;13.420;2023-05-10T14:45:48;79.30;;;41.57;;
11255;SDS011;5685;52.384;13.420;2023-05-10T14:48:52;79.20;;;41.60;;
11255;SDS011;5685;52.384;13.420;2023-05-10T14:51:54;78.40;;;41.27;;
11255;SDS011;5685;52.384;13.420;2023-05-10T14:54:56;78.53;;;41.47;;
11255;SDS011;5685;52.384;13.420;2023-05-10T14:58:01;78.57;;;41.40;;
11255;SDS011;5685;52.384;13.420;2023-05-10T15:01:04;78.70;;;41.40;;
11255;SDS011;5685;52.384;13.420;2023-05-10T15:04:08;79.17;;;41.63;;
11255;SDS011;5685;52.384;13.420;2023-05-10T15:07:10;79.07;;;41.57;;
11255;SDS011;5685;52.384;13.420;2023-05-10T15:10:14;79.27;;;41.67;;
11255;SDS011;5685;52.384;13.420;2023-05-10T15:13:17;79.33;;;41.70;;
11255;SDS011;5685;52.384;13.420;2023-05-10T15:16:19;79.10;;;41.53;;
11255;SDS011;5685;52.384;13.420;2023-05-10T15:19:23;79.00;;;41.57;;
11255;SDS011;5685;52.384;13.420;2023-05-10T15:22:25;78.97;;;41.70;;
11255;SDS011;5685;52.384;13.420;2023-05-10T15:25:29;78.80;;;41.53;;
11255;SDS011;5685;52.384;13.420;2023-05-10T15:28:31;78.73;;;41.63;;
11255;SDS011;5685;52.384;13.420;2023-05-10T15:31:33;78.93;;;41.80;;
11255;SDS011;5685;52.384;13.420;2023-05-10T15:34:37;79.30;;;41.63;;
11255;SDS011;5685;52.384;13.420;2023-05-10T15:37:39;79.17;;;41.63;;
11255;SDS011;5685;52.384;13.420;2023-05-10T15:40:42;79.53;;;41.97;;
11255;SDS011;5685;52.384;13.420;2023-05-10T15:43:44;79.33;;;41.70;;
11255;SDS011;5685;52.384;13.420;2023-05-10T15:46:46;79.33;;;41.80;;
11255;SDS011;5685;52.384;13.420;2023-05-10T15:49:50;79.00;;;41.60;;
11255;SDS011;5685;52.384;13.420;2023-05-10T15:52:53;79.40;;;41.73;;
11255;SDS011;5685;52.384;13.420;2023-05-10T15:55:55;79.13;;;41.70;;
11255;SDS011;5685;52.384;13.420;2023-05-10T15:58:57;79.57;;;41.80;;
11255;SDS011;5685;52.384;13.420;2023-05-10T16:02:00;79.87;;;42.00;;
11255;SDS011;5685;52.384;13.420;2023-05-10T16:05:05;79.00;;;41.57;;
11255;SDS011;5685;52.384;13.420;2023-05-10T16:08:07;79.40;;;41.87;;
11255;SDS011;5685;52.384;13.420;2023-05-10T16:11:09;80.33;;;42.30;;
11255;SDS011;5685;52.384;13.420;2023-05-10T16:14:12;80.03;;;42.07;;
11255;SDS011;5685;52.384;13.420;2023-05-10T16:17:15;79.50;;;41.87;;
11255;SDS011;5685;52.384;13.420;2023-05-10T16:20:20;79.07;;;41.70;;
11255;SDS011;5685;52.384;13.420;2023-05-10T16:23:23;79.13;;;41.60;;
11255;SDS011;5685;52.384;13.420;2023-05-10T16:26:25;79.40;;;41.87;;
11255;SDS011;5685;52.384;13.420;2023-05-10T16:29:27;79.07;;;41.67;;
11255;SDS011;5685;52.384;13.420;2023-05-10T16:32:31;78.97;;;41.60;;
11255;SDS011;5685;52.384;13.420;2023-05-10T16:35:34;78.63;;;41.47;;
11255;SDS011;5685;52.384;13.420;2023-05-10T16:38:37;78.87;;;41.70;;
11255;SDS011;5685;52.384;13.420;2023-05-10T16:41:40;79.03;;;41.70;;
11255;SDS011;5685;52.384;13.420;2023-05-10T16:44:43;79.17;;;41.70;;
11255;SDS011;5685;52.384;13.420;2023-05-10T16:47:45;79.10;;;41.83;;
11255;SDS011;5685;52.384;13.420;2023-05-10T16:50:49;79.47;;;41.93;;
11255;SDS011;5685;52.384;13.420;2023-05-10T16:53:51;78.97;;;41.73;;
11255;SDS011;5685;52.384;13.420;2023-05-10T16:56:54;79.13;;;41.80;;
11255;SDS011;5685;52.384;13.420;2023-05-10T16:59:56;78.93;;;41.77;;
11255;SDS011;5685;52.384;13.420;2023-05-10T17:02:58;79.27;;;41.87;;
11255;SDS011;5685;52.384;13.420;2023-05-10T17:06:02;78.87;;;41.77;;
11255;SDS011;5685;52.384;13.420;2023-05-10T17:09:06;79.53;;;41.97;;
11255;SDS011;5685;52.384;13.420;2023-05-10T17:12:08;79.17;;;41.77;;
11255;SDS011;5685;52.384;13.420;2023-05-10T17:15:11;78.97;;;41.77;;
11255;SDS011;5685;52.384;13.420;2023-05-10T17:18:15;79.13;;;41.87;;
11255;SDS011;5685;52.384;13.420;2023-05-10T17:21:20;79.13;;;41.97;;
11255;SDS011;5685;52.384;13.420;2023-05-10T17:24:22;79.37;;;42.03;;
11255;SDS011;5685;52.384;13.420;2023-05-10T17:27:26;78.73;;;41.77;;
11255;SDS011;5685;52.384;13.420;2023-05-10T17:30:29;79.37;;;42.00;;
11255;SDS011;5685;52.384;13.420;2023-05-10T17:33:32;78.60;;;41.70;;
11255;SDS011;5685;52.384;13.420;2023-05-10T17:36:35;78.70;;;41.67;;
11255;SDS011;5685;52.384;13.420;2023-05-10T17:39:38;79.03;;;41.93;;
11255;SDS011;5685;52.384;13.420;2023-05-10T17:42:40;79.33;;;42.03;;
11255;SDS011;5685;52.384;13.420;2023-05-10T17:45:42;79.77;;;42.10;;
11255;SDS011;5685;52.384;13.420;2023-05-10T17:48:45;79.67;;;42.20;;
11255;SDS011;5685;52.384;13.420;2023-05-10T17:51:49;79.47;;;42.10;;
11255;SDS011;5685;52.384;13.420;2023-05-10T17:54:51;79.60;;;42.20;;